Time;durP1;ratioP1;P1;durP2;ratioP2;P2;SDS_P1;SDS_P2;PMS_P1;PMS_P2;Temp;Humidity;BMP_temperature;BMP_pressure;BME280_temperature;BME280_humidity;BME280_pressure;Samples;Min_cycle;Max_cycle;Signal;HPM_P1;HPM_P2
2021/04/05 00:00:12;;;;;;;29.73;27.63;;;5.80;68.60;;;;;;5133002;28;20290;-77
2021/04/05 00:02:39;;;;;;;30.50;28.42;;;5.80;68.40;;;;;;5133265;28;20280;-77
2021/04/05 00:05:09;;;;;;;30.90;28.83;;;5.80;68.50;;;;;;5132606;28;20197;-77
2021/04/05 00:07:35;;;;;;;30.75;28.55;;;5.90;68.40;;;;;;5132641;27;20678;-77
2021/04/05 00:10:06;;;;;;;29.98;27.77;;;5.90;68.40;;;;;;5132839;28;20228;-78
2021/04/05 00:12:32;;;;;;;32.13;29.88;;;5.80;68.80;;;;;;5132836;27;20588;-77
2021/04/05 00:14:58;;;;;;;31.08;29.08;;;5.70;68.80;;;;;;5133015;27;20229;-77
2021/04/05 00:17:25;;;;;;;29.67;27.80;;;5.80;68.70;;;;;;5136842;27;20196;-77
2021/04/05 00:19:52;;;;;;;30.40;28.10;;;5.80;68.60;;;;;;5137358;27;20304;-78
2021/04/05 00:22:18;;;;;;;29.40;27.40;;;5.70;68.90;;;;;;5137043;27;20694;-77
2021/04/05 00:24:45;;;;;;;31.17;28.77;;;5.70;69.20;;;;;;5137259;27;20206;-77
2021/04/05 00:27:11;;;;;;;31.88;29.40;;;5.70;69.10;;;;;;5136717;27;20227;-77
2021/04/05 00:29:38;;;;;;;29.75;27.75;;;5.70;69.10;;;;;;5137045;27;20338;-77
2021/04/05 00:32:05;;;;;;;30.17;28.05;;;5.70;69.30;;;;;;5137056;27;20193;-77
2021/04/05 00:34:32;;;;;;;29.30;27.33;;;5.60;69.30;;;;;;5136952;27;20293;-77
2021/04/05 00:36:58;;;;;;;30.23;27.85;;;5.70;69.20;;;;;;5136115;27;20221;-77
2021/04/05 00:39:25;;;;;;;29.52;27.45;;;5.70;69.00;;;;;;5136787;27;20218;-77
2021/04/05 00:41:52;;;;;;;28.50;26.50;;;5.60;69.30;;;;;;5136888;27;20765;-77
2021/04/05 00:44:18;;;;;;;28.77;26.88;;;5.70;69.00;;;;;;5137029;27;20201;-77
2021/04/05 00:46:45;;;;;;;29.65;27.42;;;5.70;68.90;;;;;;5136177;27;20245;-76
2021/04/05 00:49:12;;;;;;;29.30;27.10;;;5.80;68.60;;;;;;5136866;27;20258;-76
2021/04/05 00:51:39;;;;;;;29.40;27.20;;;5.80;68.80;;;;;;5136209;27;20727;-76
2021/04/05 00:54:06;;;;;;;29.23;27.23;;;5.60;69.30;;;;;;5136620;27;20194;-78
2021/04/05 00:56:33;;;;;;;27.55;25.85;;;5.70;69.10;;;;;;5135914;27;20190;-77
2021/04/05 00:58:59;;;;;;;28.48;26.40;;;5.70;69.00;;;;;;5136430;27;20595;-77
2021/04/05 01:01:27;;;;;;;28.48;26.52;;;5.80;68.70;;;;;;5136487;27;20251;-77
2021/04/05 01:03:55;;;;;;;29.80;27.20;;;5.90;68.20;;;;;;5136318;27;20247;-77
2021/04/05 01:06:25;;;;;;;29.10;27.00;;;6.00;68.10;;;;;;5135231;27;20304;-78
2021/04/05 01:08:52;;;;;;;29.33;27.27;;;5.90;68.20;;;;;;5136516;27;20219;-77
2021/04/05 01:11:20;;;;;;;27.63;25.83;;;5.90;68.20;;;;;;5138345;27;20214;-77
2021/04/05 01:13:48;;;;;;;28.42;26.73;;;5.90;68.30;;;;;;5142536;27;20224;-77
2021/04/05 01:16:15;;;;;;;29.48;27.63;;;5.90;68.50;;;;;;5137958;27;20197;-77
2021/04/05 01:18:42;;;;;;;31.40;29.20;;;6.00;68.30;;;;;;5135990;27;20288;-77
2021/04/05 01:21:09;;;;;;;28.00;26.00;;;6.00;68.00;;;;;;5135944;27;20305;-77
2021/04/05 01:23:37;;;;;;;29.35;27.55;;;6.00;68.00;;;;;;5136037;27;20281;-76
2021/04/05 01:26:04;;;;;;;28.73;26.25;;;6.00;67.90;;;;;;5135576;27;20242;-77
2021/04/05 01:28:31;;;;;;;27.98;25.98;;;6.00;68.00;;;;;;5135161;27;20296;-77
2021/04/05 01:30:59;;;;;;;27.85;26.05;;;6.00;68.10;;;;;;5135738;27;20214;-77
2021/04/05 01:33:29;;;;;;;29.38;26.77;;;5.90;68.10;;;;;;5135680;27;20201;-77
2021/04/05 01:35:58;;;;;;;28.05;26.20;;;5.90;68.80;;;;;;5135407;27;20202;-77
2021/04/05 01:38:26;;;;;;;28.95;26.85;;;5.90;68.70;;;;;;5135679;27;20601;-77
2021/04/05 01:40:56;;;;;;;28.77;26.77;;;5.80;71.00;;;;;;5135427;27;20225;-76
2021/04/05 01:43:23;;;;;;;29.10;27.20;;;5.80;71.70;;;;;;5135660;27;20293;-77
2021/04/05 01:45:49;;;;;;;29.33;27.08;;;5.80;72.00;;;;;;5134814;27;20788;-77
2021/04/05 01:48:16;;;;;;;28.88;26.77;;;5.80;70.90;;;;;;5135447;27;20304;-77
2021/04/05 01:50:43;;;;;;;29.48;27.52;;;5.80;71.70;;;;;;5135282;27;20623;-77
2021/04/05 01:53:11;;;;;;;30.25;27.70;;;5.70;71.70;;;;;;5135288;27;20232;-77
2021/04/05 01:55:37;;;;;;;27.42;25.60;;;5.70;71.60;;;;;;5134673;27;20247;-77
2021/04/05 01:58:06;;;;;;;29.23;27.02;;;5.60;72.80;;;;;;5135319;27;20226;-77
2021/04/05 02:00:36;;;;;;;30.10;27.63;;;5.70;75.00;;;;;;5134961;27;20220;-77
2021/04/05 02:03:08;;;;;;;28.08;26.23;;;5.60;74.50;;;;;;5135144;27;20198;-77
2021/04/05 02:05:37;;;;;;;28.85;26.63;;;5.60;73.80;;;;;;5134182;27;20600;-77
2021/04/05 02:08:06;;;;;;;28.05;26.10;;;5.70;72.30;;;;;;5134919;27;20306;-77
2021/04/05 02:10:33;;;;;;;29.85;27.63;;;5.70;70.80;;;;;;5134825;27;20214;-77
2021/04/05 02:13:00;;;;;;;27.17;25.48;;;5.70;70.20;;;;;;5134861;27;20197;-77
2021/04/05 02:15:27;;;;;;;28.17;26.33;;;5.70;70.10;;;;;;5134505;27;20194;-82
2021/04/05 02:17:54;;;;;;;29.65;27.35;;;5.70;70.80;;;;;;5134823;27;20189;-77
2021/04/05 02:20:21;;;;;;;31.00;28.50;;;5.60;72.00;;;;;;5134742;27;20217;-77
2021/04/05 02:22:51;;;;;;;29.63;27.17;;;5.60;73.00;;;;;;5134758;27;20190;-77
2021/04/05 02:25:20;;;;;;;28.98;27.00;;;5.60;71.30;;;;;;5134503;27;20285;-77
2021/04/05 02:27:47;;;;;;;28.85;26.65;;;5.60;70.30;;;;;;5134074;27;20690;-77
2021/04/05 02:30:22;;;;;;;27.67;25.83;;;5.50;70.20;;;;;;5134690;27;20213;-77
2021/04/05 02:32:53;;;;;;;28.60;26.35;;;5.50;70.30;;;;;;5134766;27;20558;-77
2021/04/05 02:35:20;;;;;;;29.30;27.10;;;5.50;71.30;;;;;;5134063;27;20743;-77
2021/04/05 02:37:47;;;;;;;29.15;27.25;;;5.50;74.30;;;;;;5134212;27;20284;-77
2021/04/05 02:40:15;;;;;;;28.63;26.63;;;5.40;75.80;;;;;;5133205;27;20270;-77
2021/04/05 02:42:42;;;;;;;28.08;26.20;;;5.40;73.40;;;;;;5134346;27;20733;-77
2021/04/05 02:45:09;;;;;;;28.80;26.80;;;5.40;72.10;;;;;;5134208;27;20673;-77
2021/04/05 02:47:37;;;;;;;29.83;27.75;;;5.40;71.00;;;;;;5133614;27;20228;-78
2021/04/05 02:50:06;;;;;;;29.33;27.58;;;5.40;70.80;;;;;;5134081;27;20218;-77
2021/04/05 02:52:35;;;;;;;27.50;25.70;;;5.30;70.90;;;;;;5134071;27;20276;-77
2021/04/05 02:55:04;;;;;;;28.75;26.80;;;5.30;70.90;;;;;;5134140;27;20194;-77
2021/04/05 02:57:33;;;;;;;29.38;27.38;;;5.30;73.30;;;;;;5133558;27;20251;-77
2021/04/05 02:59:59;;;;;;;29.55;27.42;;;5.20;78.00;;;;;;5133998;27;20267;-77
2021/04/05 03:02:26;;;;;;;28.40;26.45;;;5.30;76.70;;;;;;5133985;27;20301;-77
2021/04/05 03:04:54;;;;;;;29.55;27.30;;;5.30;75.60;;;;;;5133666;27;20285;-77
2021/04/05 03:07:23;;;;;;;29.60;27.58;;;5.30;73.90;;;;;;5132931;27;20217;-77
2021/04/05 03:09:50;;;;;;;28.23;26.27;;;5.30;72.10;;;;;;5133927;27;20260;-77
2021/04/05 03:12:17;;;;;;;29.30;26.70;;;5.20;72.00;;;;;;5133630;27;20339;-77
2021/04/05 03:14:44;;;;;;;28.50;26.70;;;5.20;71.90;;;;;;5134034;27;20189;-77
2021/04/05 03:17:11;;;;;;;27.85;25.85;;;5.10;73.50;;;;;;5133085;27;20200;-77
2021/04/05 03:19:39;;;;;;;30.20;27.70;;;5.10;73.40;;;;;;5133577;27;20585;-76
2021/04/05 03:22:06;;;;;;;29.00;26.73;;;5.00;75.30;;;;;;5133648;27;20204;-77
2021/04/05 03:24:36;;;;;;;28.40;26.48;;;5.00;75.50;;;;;;5133836;27;20650;-77
2021/04/05 03:27:03;;;;;;;28.50;26.27;;;5.00;74.10;;;;;;5132933;27;20217;-77
2021/04/05 03:29:33;;;;;;;28.08;26.08;;;5.00;73.40;;;;;;5133336;27;20300;-77
2021/04/05 03:32:02;;;;;;;29.25;26.80;;;5.00;72.70;;;;;;5133347;27;20281;-77
2021/04/05 03:34:32;;;;;;;27.70;25.60;;;5.10;72.20;;;;;;5133330;27;20209;-77
2021/04/05 03:37:01;;;;;;;30.30;28.23;;;5.10;72.50;;;;;;5132974;27;20277;-77
2021/04/05 03:39:28;;;;;;;28.95;26.95;;;5.00;75.80;;;;;;5133181;27;20304;-78
2021/04/05 03:42:00;;;;;;;27.83;26.23;;;5.10;73.40;;;;;;5133302;27;20209;-77
2021/04/05 03:44:35;;;;;;;29.13;26.92;;;5.10;72.10;;;;;;5133307;27;20228;-77
2021/04/05 03:47:08;;;;;;;28.40;26.50;;;5.10;71.80;;;;;;5132632;27;20213;-77
2021/04/05 03:49:40;;;;;;;30.02;27.92;;;5.10;71.80;;;;;;5133256;27;20249;-76
2021/04/05 03:52:18;;;;;;;28.42;26.52;;;5.00;71.90;;;;;;5132796;27;20312;-77
2021/04/05 03:54:49;;;;;;;28.75;26.73;;;4.80;72.50;;;;;;5133152;27;20225;-77
2021/04/05 03:57:21;;;;;;;29.60;27.60;;;4.80;72.80;;;;;;5132650;28;20277;-77
2021/04/05 03:59:50;;;;;;;28.50;26.40;;;4.80;72.70;;;;;;5133032;28;20222;-77
2021/04/05 04:02:20;;;;;;;30.05;27.63;;;4.80;72.80;;;;;;5133234;28;20263;-77
2021/04/05 04:04:54;;;;;;;28.52;26.48;;;4.80;73.00;;;;;;5133073;27;20213;-77
2021/04/05 04:07:27;;;;;;;29.23;26.98;;;4.70;73.20;;;;;;5132208;27;20266;-77
2021/04/05 04:09:57;;;;;;;28.00;25.80;;;4.70;73.40;;;;;;5133117;28;20706;-77
2021/04/05 04:12:25;;;;;;;29.05;26.80;;;4.70;73.60;;;;;;5132701;28;20197;-77
2021/04/05 04:14:53;;;;;;;29.45;27.15;;;4.70;73.70;;;;;;5133180;28;20193;-77
2021/04/05 04:17:21;;;;;;;28.83;26.85;;;4.60;73.80;;;;;;5132359;28;20681;-77
2021/04/05 04:19:48;;;;;;;29.50;27.50;;;4.70;73.70;;;;;;5132860;28;20214;-77
2021/04/05 04:22:15;;;;;;;29.25;27.25;;;4.80;73.40;;;;;;5132876;28;20200;-77
2021/04/05 04:24:42;;;;;;;30.00;27.83;;;4.80;73.30;;;;;;5133216;28;20204;-77
2021/04/05 04:27:08;;;;;;;30.40;28.38;;;4.80;73.40;;;;;;5132103;28;20229;-77
2021/04/05 04:29:36;;;;;;;29.40;27.20;;;4.80;73.40;;;;;;5132888;28;20639;-77
2021/04/05 04:32:03;;;;;;;29.48;27.15;;;4.70;73.60;;;;;;5132780;28;20194;-77
2021/04/05 04:34:29;;;;;;;29.95;27.85;;;4.70;73.80;;;;;;5132771;28;20202;-77
2021/04/05 04:37:02;;;;;;;30.65;28.42;;;4.60;74.00;;;;;;5132139;28;20548;-77
2021/04/05 04:39:30;;;;;;;28.67;26.45;;;4.60;73.90;;;;;;5132867;27;20249;-77
2021/04/05 04:41:57;;;;;;;28.48;26.23;;;4.60;73.90;;;;;;5132783;28;20695;-77
2021/04/05 04:44:23;;;;;;;29.83;27.77;;;4.60;74.10;;;;;;5132693;28;20201;-77
2021/04/05 04:46:50;;;;;;;30.88;28.40;;;4.50;74.70;;;;;;5132153;28;20309;-77
2021/04/05 04:49:17;;;;;;;29.20;26.73;;;4.50;74.80;;;;;;5132485;28;20296;-77
2021/04/05 04:51:43;;;;;;;28.60;26.80;;;4.60;74.70;;;;;;5133004;28;20315;-77
2021/04/05 04:54:11;;;;;;;30.65;27.90;;;4.60;74.40;;;;;;5132701;28;20202;-77
2021/04/05 04:56:38;;;;;;;28.58;26.67;;;4.70;74.30;;;;;;5132206;28;20229;-77
2021/04/05 04:59:06;;;;;;;29.95;27.92;;;4.70;74.10;;;;;;5132581;28;20285;-77
2021/04/05 05:01:36;;;;;;;29.55;27.48;;;4.70;74.00;;;;;;5132620;27;20267;-76
2021/04/05 05:04:08;;;;;;;28.55;26.48;;;4.70;74.00;;;;;;5135883;27;20288;-77
2021/04/05 05:06:35;;;;;;;31.17;28.75;;;4.80;74.10;;;;;;5135005;27;20296;-77
2021/04/05 05:09:03;;;;;;;28.33;26.23;;;4.80;73.90;;;;;;5136322;27;20205;-77
2021/04/05 05:11:29;;;;;;;28.75;26.67;;;4.80;73.90;;;;;;5136208;27;20202;-77
2021/04/05 05:13:56;;;;;;;31.23;28.98;;;4.90;73.80;;;;;;5136213;27;20193;-77
2021/04/05 05:16:24;;;;;;;28.35;26.45;;;5.00;73.50;;;;;;5135436;27;20581;-77
2021/04/05 05:18:53;;;;;;;29.13;27.13;;;5.20;73.00;;;;;;5136175;27;20197;-77
2021/04/05 05:21:23;;;;;;;28.70;26.65;;;5.30;72.30;;;;;;5135939;27;20203;-77
2021/04/05 05:23:53;;;;;;;29.50;27.50;;;5.40;71.90;;;;;;5136141;27;20194;-77
2021/04/05 05:26:22;;;;;;;30.40;28.10;;;5.40;71.70;;;;;;5135018;27;20194;-78
2021/04/05 05:28:51;;;;;;;28.70;26.85;;;5.40;71.50;;;;;;5135848;27;20246;-77
2021/04/05 05:31:18;;;;;;;31.85;29.52;;;5.60;71.20;;;;;;5135682;27;20214;-77
2021/04/05 05:33:45;;;;;;;32.42;29.63;;;5.70;71.00;;;;;;5135638;27;20304;-77
2021/04/05 05:36:12;;;;;;;29.65;27.55;;;5.70;70.50;;;;;;5135450;27;20222;-77
2021/04/05 05:38:40;;;;;;;28.83;26.70;;;5.80;70.20;;;;;;5135566;27;20334;-77
2021/04/05 05:41:13;;;;;;;29.25;27.10;;;5.80;70.20;;;;;;5135586;27;20300;-77
2021/04/05 05:43:47;;;;;;;28.60;26.50;;;5.90;70.10;;;;;;5135501;27;20283;-77
2021/04/05 05:46:21;;;;;;;27.67;25.65;;;6.00;69.70;;;;;;5135142;27;20284;-77
2021/04/05 05:49:07;;;;;;;28.30;26.20;;;6.00;69.60;;;;;;5135601;27;20221;-77
2021/04/05 05:52:03;;;;;;;29.27;27.27;;;6.10;69.40;;;;;;5135238;27;20190;-78
2021/04/05 05:54:43;;;;;;;30.80;28.20;;;6.30;69.00;;;;;;5135338;27;20200;-77
2021/04/05 05:57:14;;;;;;;29.75;27.15;;;6.30;68.80;;;;;;5134740;27;20276;-77
2021/04/05 05:59:46;;;;;;;29.58;27.60;;;6.50;68.50;;;;;;5135360;27;20213;-77
2021/04/05 06:02:29;;;;;;;28.13;26.20;;;6.50;70.70;;;;;;5135076;27;20288;-77
2021/04/05 06:05:06;;;;;;;28.27;26.27;;;6.60;69.00;;;;;;5134903;27;20254;-78
2021/04/05 06:07:41;;;;;;;29.23;26.83;;;6.70;67.90;;;;;;5134450;27;20801;-77
2021/04/05 06:10:20;;;;;;;29.35;27.30;;;6.70;68.00;;;;;;5135090;27;20574;-78
2021/04/05 06:13:01;;;;;;;28.52;26.42;;;6.80;67.50;;;;;;5134911;27;20246;-77
2021/04/05 06:15:30;;;;;;;30.35;28.27;;;6.90;67.40;;;;;;5134571;27;20198;-81
2021/04/05 06:18:05;;;;;;;28.80;26.88;;;7.10;67.10;;;;;;5135006;27;20602;-78
2021/04/05 06:20:38;;;;;;;29.17;26.95;;;7.20;66.30;;;;;;5134795;27;20224;-77
2021/04/05 06:23:25;;;;;;;28.13;26.13;;;7.30;66.90;;;;;;5134777;27;20198;-78
2021/04/05 06:26:02;;;;;;;32.47;30.73;;;7.40;69.30;;;;;;5134396;27;20200;-75
2021/04/05 06:28:40;;;;;;;29.27;26.83;;;7.50;66.70;;;;;;5134559;27;20224;-76
2021/04/05 06:31:18;;;;;;;29.40;27.20;;;7.80;65.70;;;;;;5134342;27;20238;-76
2021/04/05 06:33:50;;;;;;;30.15;27.35;;;7.90;64.50;;;;;;5134508;27;20360;-77
2021/04/05 06:36:23;;;;;;;28.10;26.15;;;7.90;65.60;;;;;;5134013;27;20194;-76
2021/04/05 06:38:56;;;;;;;28.80;26.85;;;8.00;69.00;;;;;;5134410;27;20204;-76
2021/04/05 06:42:07;;;;;;;29.35;27.35;;;8.10;67.70;;;;;;5134484;27;20201;-76
2021/04/05 06:45:13;;;;;;;30.83;28.30;;;8.30;63.80;;;;;;5113896;27;20566;-76
2021/04/05 06:48:02;;;;;;;29.70;27.70;;;8.40;62.40;;;;;;5109649;27;20253;-76
2021/04/05 06:50:37;;;;;;;28.98;26.63;;;8.60;62.00;;;;;;5134110;27;20757;-76
2021/04/05 06:53:24;;;;;;;28.38;26.42;;;8.80;61.40;;;;;;5134164;27;20284;-76
2021/04/05 06:55:55;;;;;;;29.65;27.52;;;9.00;60.50;;;;;;5133809;27;20204;-76
2021/04/05 06:58:48;;;;;;;31.67;29.38;;;9.20;60.20;;;;;;5134015;27;20224;-76
2021/04/05 07:01:24;;;;;;;28.55;26.58;;;9.40;59.70;;;;;;5125163;27;20690;-76
2021/04/05 07:04:19;;;;;;;28.30;26.50;;;9.60;59.50;;;;;;5134120;27;20213;-77
2021/04/05 07:06:50;;;;;;;27.92;25.95;;;9.80;59.30;;;;;;5115357;27;20718;-76
2021/04/05 07:09:33;;;;;;;27.73;25.73;;;9.80;58.20;;;;;;5133803;27;20220;-77
2021/04/05 07:12:42;;;;;;;29.17;27.08;;;10.00;58.10;;;;;;5133820;27;20203;-77
2021/04/05 07:15:16;;;;;;;30.42;28.30;;;10.20;57.30;;;;;;5133761;27;20190;-77
2021/04/05 07:17:50;;;;;;;27.88;25.95;;;10.30;56.80;;;;;;5133224;27;20254;-76
2021/04/05 07:20:23;;;;;;;28.52;26.52;;;10.60;56.10;;;;;;5133824;27;20301;-77
2021/04/05 07:23:02;;;;;;;27.95;26.15;;;10.70;55.50;;;;;;5133645;27;20189;-76
2021/04/05 07:25:37;;;;;;;28.17;26.40;;;10.70;55.40;;;;;;5132466;27;20752;-77
2021/04/05 07:28:16;;;;;;;29.08;26.67;;;10.90;54.60;;;;;;5133522;27;20235;-77
2021/04/05 07:30:47;;;;;;;28.13;26.17;;;10.90;54.40;;;;;;5133450;27;20582;-77
2021/04/05 07:33:26;;;;;;;28.35;26.20;;;11.00;54.30;;;;;;5133342;27;20277;-77
2021/04/05 07:36:02;;;;;;;28.33;26.33;;;11.10;54.10;;;;;;5132901;27;20204;-77
2021/04/05 07:38:38;;;;;;;28.95;27.05;;;11.10;54.00;;;;;;5133511;27;20276;-77
2021/04/05 07:41:10;;;;;;;28.80;26.77;;;11.20;53.90;;;;;;5133228;27;20220;-76
2021/04/05 07:43:52;;;;;;;29.35;27.45;;;11.30;53.40;;;;;;5133272;27;20970;-77
2021/04/05 07:46:28;;;;;;;29.53;27.50;;;11.40;53.10;;;;;;5132931;27;20205;-77
2021/04/05 07:49:07;;;;;;;31.70;29.60;;;11.50;52.90;;;;;;5133111;27;20801;-77
2021/04/05 07:51:46;;;;;;;29.27;27.10;;;11.60;53.10;;;;;;5133107;27;20503;-77
2021/04/05 07:54:14;;;;;;;28.50;26.50;;;11.80;52.70;;;;;;5133190;27;20447;-77
2021/04/05 07:56:51;;;;;;;30.23;28.13;;;11.90;52.40;;;;;;5132488;27;20914;-77
2021/04/05 07:59:29;;;;;;;29.33;26.97;;;12.10;52.10;;;;;;5133081;28;20473;-78
2021/04/05 08:02:04;;;;;;;30.37;28.07;;;12.40;51.70;;;;;;5133242;28;20479;-77
2021/04/05 08:04:40;;;;;;;28.60;26.40;;;12.50;51.50;;;;;;5133302;28;20789;-77
2021/04/05 08:07:11;;;;;;;28.73;26.60;;;12.60;50.90;;;;;;5131925;27;20471;-76
2021/04/05 08:09:45;;;;;;;29.77;27.47;;;12.80;50.90;;;;;;5132978;28;20477;-76
2021/04/05 08:12:31;;;;;;;27.07;25.37;;;13.10;50.60;;;;;;5133018;27;20542;-76
2021/04/05 08:15:15;;;;;;;27.93;26.13;;;13.40;50.00;;;;;;5133164;28;20451;-76
2021/04/05 08:17:53;;;;;;;28.50;26.60;;;13.50;49.90;;;;;;5132353;27;20953;-76
2021/04/05 08:20:25;;;;;;;29.23;26.93;;;13.70;49.40;;;;;;5132993;28;20479;-76
2021/04/05 08:22:58;;;;;;;30.10;27.63;;;13.80;49.20;;;;;;5133188;28;20447;-76
2021/04/05 08:25:32;;;;;;;28.77;26.40;;;13.60;49.20;;;;;;5132732;28;20808;-76
2021/04/05 08:28:08;;;;;;;29.33;27.43;;;13.50;49.60;;;;;;5132692;28;20479;-77
2021/04/05 08:30:42;;;;;;;28.83;26.60;;;13.30;50.10;;;;;;5132767;28;20558;-76
2021/04/05 08:33:23;;;;;;;28.70;26.60;;;13.40;50.20;;;;;;5132887;28;20447;-76
2021/04/05 08:35:54;;;;;;;27.30;25.43;;;13.30;50.10;;;;;;5132378;28;20530;-77
2021/04/05 08:38:25;;;;;;;27.77;26.03;;;13.30;50.30;;;;;;5136586;27;20435;-77
2021/04/05 08:41:02;;;;;;;27.23;25.37;;;13.50;49.60;;;;;;5136755;27;20895;-76
2021/04/05 08:43:39;;;;;;;27.77;25.47;;;13.80;47.40;;;;;;5136907;27;20438;-76
2021/04/05 08:46:12;;;;;;;27.73;25.60;;;13.70;47.30;;;;;;5136216;27;20458;-76
2021/04/05 08:48:42;;;;;;;28.43;26.50;;;13.80;46.50;;;;;;5136400;27;20475;-78
2021/04/05 08:51:11;;;;;;;26.00;24.00;;;13.90;44.70;;;;;;5136454;27;21011;-76
2021/04/05 08:53:44;;;;;;;28.70;26.57;;;13.90;43.70;;;;;;5136408;27;20451;-76
2021/04/05 08:56:13;;;;;;;27.13;25.30;;;14.00;43.30;;;;;;5135928;27;20447;-76
2021/04/05 08:58:45;;;;;;;26.70;24.83;;;13.80;44.00;;;;;;5136493;27;20446;-77
2021/04/05 09:01:18;;;;;;;28.20;26.10;;;13.80;44.50;;;;;;5136320;27;20488;-77
2021/04/05 09:03:46;;;;;;;28.70;26.73;;;13.80;44.70;;;;;;5136412;27;20451;-77
2021/04/05 09:06:18;;;;;;;26.87;25.10;;;13.80;44.50;;;;;;5135419;27;20494;-76
2021/04/05 09:08:47;;;;;;;26.67;25.07;;;13.70;44.20;;;;;;5136478;27;20550;-77
2021/04/05 09:11:15;;;;;;;27.50;25.47;;;13.80;44.90;;;;;;5136022;27;20909;-76
2021/04/05 09:13:45;;;;;;;28.37;26.40;;;13.90;45.10;;;;;;5136040;27;20917;-75
2021/04/05 09:16:47;;;;;;;27.63;25.70;;;14.00;44.90;;;;;;5135407;27;20508;-76
2021/04/05 09:19:45;;;;;;;27.60;25.50;;;14.00;44.60;;;;;;5094511;27;20846;-76
2021/04/05 09:22:35;;;;;;;28.50;26.27;;;14.00;44.50;;;;;;5135839;27;20455;-76
2021/04/05 09:25:24;;;;;;;26.83;24.80;;;14.10;44.70;;;;;;5136114;27;20816;-76
2021/04/05 09:28:11;;;;;;;27.17;25.37;;;14.10;44.60;;;;;;5135713;27;20481;-76
2021/04/05 09:31:02;;;;;;;29.00;27.20;;;14.10;44.80;;;;;;5135656;27;20802;-76
2021/04/05 09:33:55;;;;;;;28.20;26.23;;;14.20;44.70;;;;;;5135828;27;20471;-76
2021/04/05 09:36:43;;;;;;;26.77;25.17;;;14.20;44.30;;;;;;5135210;27;20456;-77
2021/04/05 09:39:33;;;;;;;27.80;25.80;;;14.20;45.00;;;;;;5135667;27;20463;-76
2021/04/05 09:42:46;;;;;;;28.40;25.90;;;14.30;43.90;;;;;;5135558;27;20444;-76
2021/04/05 09:45:17;;;;;;;27.17;25.07;;;14.20;43.80;;;;;;5135529;27;20451;-76
2021/04/05 09:48:23;;;;;;;29.30;27.20;;;14.30;43.90;;;;;;5134807;27;20817;-76
2021/04/05 09:51:08;;;;;;;28.47;26.37;;;14.50;43.30;;;;;;5052186;28;20470;-77
2021/04/05 09:53:57;;;;;;;27.20;25.30;;;14.70;42.40;;;;;;5051868;28;20458;-80
2021/04/05 09:56:28;;;;;;;27.67;25.30;;;14.90;41.90;;;;;;5115033;27;20516;-76
2021/04/05 09:59:02;;;;;;;26.20;24.50;;;15.00;41.60;;;;;;5135552;27;20452;-77
2021/04/05 10:01:31;;;;;;;27.10;25.20;;;15.00;40.50;;;;;;5135244;27;20480;-77
2021/04/05 10:04:01;;;;;;;26.90;25.00;;;14.90;40.60;;;;;;5135219;27;20474;-77
2021/04/05 10:06:32;;;;;;;27.30;25.37;;;14.90;40.40;;;;;;5134060;27;20447;-77
2021/04/05 10:08:59;;;;;;;27.23;25.17;;;14.90;40.30;;;;;;5135005;27;20472;-77
2021/04/05 10:11:28;;;;;;;26.30;24.60;;;14.90;40.20;;;;;;5134874;27;20479;-77
2021/04/05 10:13:58;;;;;;;26.30;24.60;;;14.90;40.30;;;;;;5134990;27;20940;-77
2021/04/05 10:16:26;;;;;;;29.10;26.40;;;14.90;40.30;;;;;;5134217;27;20454;-77
2021/04/05 10:18:55;;;;;;;26.07;24.37;;;15.10;40.20;;;;;;5134860;27;20450;-77
2021/04/05 10:21:23;;;;;;;30.40;28.00;;;15.10;39.30;;;;;;5134981;27;20598;-77
2021/04/05 10:23:50;;;;;;;26.83;25.03;;;15.10;40.20;;;;;;5134822;27;20458;-77
2021/04/05 10:26:18;;;;;;;26.47;24.77;;;15.10;39.80;;;;;;5134323;27;20448;-78
2021/04/05 10:28:47;;;;;;;28.30;26.60;;;15.20;39.90;;;;;;5134400;27;20827;-77
2021/04/05 10:31:18;;;;;;;26.90;25.00;;;15.30;39.40;;;;;;5134712;27;20532;-77
2021/04/05 10:33:48;;;;;;;27.83;25.10;;;15.30;39.30;;;;;;5134403;27;20546;-77
2021/04/05 10:36:20;;;;;;;26.77;24.87;;;15.30;39.00;;;;;;5134154;27;20470;-77
2021/04/05 10:38:47;;;;;;;26.07;24.20;;;15.50;38.70;;;;;;5134612;27;20804;-77
2021/04/05 10:41:19;;;;;;;26.67;24.97;;;15.50;38.20;;;;;;5134395;27;20507;-77
2021/04/05 10:43:50;;;;;;;26.23;24.53;;;15.60;38.20;;;;;;5134347;27;21003;-77
2021/04/05 10:46:19;;;;;;;26.83;25.00;;;15.60;37.00;;;;;;5134050;27;20572;-77
2021/04/05 10:48:50;;;;;;;27.77;25.97;;;15.60;37.00;;;;;;5134088;27;20979;-77
2021/04/05 10:51:22;;;;;;;27.40;25.70;;;15.60;37.30;;;;;;5134222;27;20874;-77
2021/04/05 10:54:00;;;;;;;26.97;24.80;;;15.70;37.30;;;;;;5134155;27;20448;-77
2021/04/05 10:56:29;;;;;;;26.43;24.50;;;15.80;36.30;;;;;;5133752;27;20876;-77
2021/04/05 10:59:00;;;;;;;25.77;23.97;;;15.80;36.40;;;;;;5133899;27;20578;-78
2021/04/05 11:01:30;;;;;;;27.93;25.90;;;15.80;36.40;;;;;;5133259;27;21019;-77
2021/04/05 11:03:58;;;;;;;26.40;24.63;;;15.70;35.90;;;;;;5134033;27;20538;-77
2021/04/05 11:06:29;;;;;;;27.13;24.93;;;15.50;36.40;;;;;;5132897;27;20542;-77
2021/04/05 11:08:56;;;;;;;26.30;24.67;;;15.60;36.40;;;;;;5133818;27;20539;-77
2021/04/05 11:11:31;;;;;;;27.87;26.10;;;15.70;36.70;;;;;;5133674;27;20455;-77
2021/04/05 11:14:04;;;;;;;26.87;24.97;;;15.80;36.20;;;;;;5133845;27;20451;-77
2021/04/05 11:16:32;;;;;;;27.00;25.10;;;16.00;35.60;;;;;;5133191;27;20526;-77
2021/04/05 11:19:01;;;;;;;26.83;24.97;;;15.80;35.80;;;;;;5133479;27;20536;-77
2021/04/05 11:21:36;;;;;;;28.80;26.73;;;15.70;36.10;;;;;;5133731;27;20957;-77
2021/04/05 11:24:04;;;;;;;28.13;26.27;;;15.80;36.20;;;;;;5133693;27;20451;-76
2021/04/05 11:26:34;;;;;;;26.60;24.60;;;15.80;36.40;;;;;;5133088;27;20531;-77
2021/04/05 11:29:03;;;;;;;27.63;25.63;;;15.60;36.40;;;;;;5133412;27;20802;-77
2021/04/05 11:31:37;;;;;;;27.73;25.80;;;15.60;37.30;;;;;;5133364;27;20928;-77
2021/04/05 11:34:04;;;;;;;28.30;25.97;;;15.80;37.90;;;;;;5133444;27;20455;-77
2021/04/05 11:36:39;;;;;;;27.57;25.47;;;15.80;38.70;;;;;;5132912;27;20928;-77
2021/04/05 11:39:09;;;;;;;27.60;25.67;;;15.30;39.50;;;;;;5133400;27;20450;-77
2021/04/05 11:41:36;;;;;;;28.17;26.10;;;15.00;41.20;;;;;;5133088;27;20455;-77
2021/04/05 11:44:05;;;;;;;28.83;27.00;;;14.60;42.20;;;;;;5133288;27;20885;-77
2021/04/05 11:46:37;;;;;;;29.73;27.63;;;14.30;43.40;;;;;;5132831;27;20451;-77
2021/04/05 11:49:05;;;;;;;28.80;26.80;;;14.30;43.90;;;;;;5133249;27;20475;-76
2021/04/05 11:51:39;;;;;;;31.53;29.13;;;14.10;44.30;;;;;;5133346;27;20486;-76
2021/04/05 11:54:09;;;;;;;29.30;26.90;;;14.10;44.90;;;;;;5133307;27;20451;-76
2021/04/05 11:56:37;;;;;;;30.67;28.10;;;13.90;45.70;;;;;;5132628;27;20482;-76
2021/04/05 11:59:08;;;;;;;30.23;28.30;;;13.90;46.00;;;;;;5133181;27;20483;-76
2021/04/05 12:01:41;;;;;;;30.63;28.33;;;13.70;46.70;;;;;;5133221;27;20451;-76
2021/04/05 12:04:15;;;;;;;29.60;27.57;;;13.70;46.70;;;;;;5133237;28;20532;-76
2021/04/05 12:06:46;;;;;;;29.47;27.03;;;13.80;46.70;;;;;;5131834;27;20557;-76
2021/04/05 12:09:21;;;;;;;31.23;28.90;;;13.60;46.80;;;;;;5132942;28;20475;-76
2021/04/05 12:11:50;;;;;;;30.53;28.17;;;13.70;46.50;;;;;;5134902;27;20450;-77
2021/04/05 12:14:21;;;;;;;30.33;27.97;;;13.60;46.70;;;;;;5137261;27;20479;-77
2021/04/05 12:16:51;;;;;;;29.80;27.70;;;13.70;46.70;;;;;;5136641;27;20564;-76
2021/04/05 12:19:26;;;;;;;33.13;30.77;;;13.60;46.70;;;;;;5136910;27;20570;-76
2021/04/05 12:21:54;;;;;;;30.10;27.80;;;13.60;47.20;;;;;;5137216;27;20534;-76
2021/04/05 12:24:27;;;;;;;30.77;28.13;;;13.70;47.00;;;;;;5137232;27;20800;-76
2021/04/05 12:26:59;;;;;;;31.40;29.20;;;13.50;47.10;;;;;;5136471;27;20549;-76
2021/04/05 12:29:28;;;;;;;36.40;33.80;;;13.40;49.00;;;;;;5136823;27;20460;-76
2021/04/05 12:31:57;;;;;;;31.90;29.23;;;12.80;51.00;;;;;;5136877;27;21051;-76
2021/04/05 12:34:29;;;;;;;32.63;30.10;;;12.80;51.30;;;;;;5136910;27;20542;-76
2021/04/05 12:36:56;;;;;;;32.83;30.10;;;12.60;52.20;;;;;;5136375;27;20482;-76
2021/04/05 12:39:29;;;;;;;31.20;28.83;;;12.60;52.60;;;;;;5136728;27;20814;-76
2021/04/05 12:41:57;;;;;;;32.37;29.50;;;12.70;52.50;;;;;;5136629;27;20845;-76
2021/04/05 12:44:29;;;;;;;34.60;31.30;;;12.80;51.90;;;;;;5136688;27;20443;-76
2021/04/05 12:46:58;;;;;;;31.87;29.33;;;12.70;52.40;;;;;;5136155;27;20457;-76
2021/04/05 12:49:27;;;;;;;32.83;30.23;;;12.80;52.30;;;;;;5136418;27;20498;-76
2021/04/05 12:51:55;;;;;;;32.10;29.23;;;12.70;52.70;;;;;;5136568;27;20442;-76
2021/04/05 12:54:24;;;;;;;36.07;31.30;;;12.70;53.00;;;;;;5136403;27;20527;-77
2021/04/05 12:56:52;;;;;;;35.40;32.50;;;12.70;53.20;;;;;;5135826;27;20450;-76